Time;durP1;ratioP1;P1;durP2;ratioP2;P2;SDS_P1;SDS_P2;PMS_P1;PMS_P2;Temp;Humidity;BMP_temperature;BMP_pressure;BME280_temperature;BME280_humidity;BME280_pressure;Samples;Min_cycle;Max_cycle;Signal;HPM_P1;HPM_P2
2021/12/18 00:00:32;;;;;;;6.20;3.28;;;;;;;20.23;33.34;102158.59;4164289;28;20037;-47
2021/12/18 00:02:34;;;;;;;5.75;3.85;;;;;;;20.18;32.63;102162.09;4165566;28;20037;-48
2021/12/18 00:04:36;;;;;;;4.95;3.97;;;;;;;20.14;32.95;102155.34;4165834;28;20045;-46
2021/12/18 00:06:37;;;;;;;5.15;3.30;;;;;;;20.15;32.98;102145.06;4165735;28;20046;-49
2021/12/18 00:08:39;;;;;;;4.38;3.50;;;;;;;20.15;33.14;102145.06;4165427;28;20034;-50
2021/12/18 00:10:45;;;;;;;4.10;3.40;;;;;;;20.13;33.00;102145.34;4165346;28;20052;-47
2021/12/18 00:12:49;;;;;;;5.35;3.97;;;;;;;20.15;32.91;102145.91;4165827;28;20477;-46
2021/12/18 00:14:50;;;;;;;4.88;3.13;;;;;;;20.16;33.47;102147.63;4164775;28;20115;-46
2021/12/18 00:16:52;;;;;;;4.50;3.30;;;;;;;20.17;33.88;102156.81;4165146;28;20104;-48
2021/12/18 00:18:56;;;;;;;4.57;2.97;;;;;;;20.20;34.36;102162.69;4165144;28;20050;-48
2021/12/18 00:20:59;;;;;;;4.33;3.40;;;;;;;20.21;34.55;102160.78;4165119;28;20420;-45
2021/12/18 00:23:00;;;;;;;5.13;3.40;;;;;;;20.20;33.61;102165.47;4165565;28;20095;-48
2021/12/18 00:25:03;;;;;;;4.72;3.13;;;;;;;20.16;33.77;102164.31;4165472;28;20041;-49
2021/12/18 00:27:05;;;;;;;4.35;2.97;;;;;;;20.16;33.13;102172.66;4165241;28;20041;-49
2021/12/18 00:29:09;;;;;;;4.80;3.72;;;;;;;20.18;33.00;102166.81;4164880;28;20483;-46
2021/12/18 00:31:10;;;;;;;5.13;3.97;;;;;;;20.18;33.43;102169.59;4165442;28;20087;-43
2021/12/18 00:33:12;;;;;;;6.05;3.97;;;;;;;20.17;33.55;102165.16;4165294;28;20080;-45
2021/12/18 00:35:14;;;;;;;4.93;3.50;;;;;;;20.18;34.30;102166.81;4162587;28;20049;-46
2021/12/18 00:37:16;;;;;;;4.20;3.63;;;;;;;20.19;33.60;102168.50;4147119;28;20115;-47
2021/12/18 00:39:17;;;;;;;5.70;4.07;;;;;;;20.19;33.65;102177.69;4165417;28;20092;-49
2021/12/18 00:44:03;;;;;;;4.97;3.53;;;;;;;20.17;33.63;102185.44;4165314;28;20083;-48
2021/12/18 00:46:05;;;;;;;5.50;3.75;;;;;;;20.18;33.81;102189.91;4164722;28;20480;-44
2021/12/18 00:48:06;;;;;;;4.53;3.35;;;;;;;20.18;33.96;102187.13;4164708;28;20064;-47
2021/12/18 00:50:15;;;;;;;5.75;3.58;;;;;;;20.19;34.04;102186.03;4164849;28;20111;-46
2021/12/18 00:52:17;;;;;;;4.68;3.83;;;;;;;20.16;32.41;102177.31;4164480;28;20034;-48
2021/12/18 00:54:18;;;;;;;7.95;4.50;;;;;;;20.14;33.09;102172.03;4164738;28;20037;-47
2021/12/18 00:56:20;;;;;;;5.00;3.97;;;;;;;20.15;33.21;102182.03;4164704;28;20037;-47
2021/12/18 00:58:21;;;;;;;5.57;3.95;;;;;;;20.12;32.50;102179.78;4162933;28;20037;-48
2021/12/18 01:00:24;;;;;;;6.35;4.32;;;;;;;20.12;32.73;102165.03;4165346;28;20476;-46
2021/12/18 01:02:27;;;;;;;6.53;4.35;;;;;;;20.12;32.85;102165.03;4164616;28;20034;-47
2021/12/18 01:04:29;;;;;;;6.70;4.55;;;;;;;20.12;32.87;102168.66;4164790;28;20469;-43
2021/12/18 01:06:30;;;;;;;7.72;4.43;;;;;;;20.13;32.57;102184.25;4163458;28;20049;-43
2021/12/18 01:08:32;;;;;;;4.93;3.92;;;;;;;20.14;33.09;102183.16;4164298;28;20037;-44
2021/12/18 01:12:49;;;;;;;6.85;4.47;;;;;;;20.13;33.34;102181.47;4164835;28;20029;-44
2021/12/18 01:15:05;;;;;;;4.50;3.92;;;;;;;20.15;33.47;102183.97;4163697;28;20420;-47
2021/12/18 01:23:47;;;;;;;5.68;4.97;;;;;;;20.09;31.87;102185.81;4172773;28;20438;-46
2021/12/18 01:25:50;;;;;;;7.53;4.78;;;;;;;20.07;31.90;102182.44;4180590;28;20091;-51
2021/12/18 01:27:51;;;;;;;6.88;4.63;;;;;;;20.05;31.61;102173.50;4177321;28;20028;-47
2021/12/18 01:29:53;;;;;;;7.30;4.57;;;;;;;20.00;31.08;102168.69;4180865;28;20095;-50
2021/12/18 01:31:54;;;;;;;8.60;5.22;;;;;;;20.00;31.02;102170.63;4175162;28;20032;-47
2021/12/18 01:33:58;;;;;;;5.78;4.45;;;;;;;20.01;32.08;102177.84;4171362;28;20045;-48
2021/12/18 01:36:01;;;;;;;7.05;4.47;;;;;;;20.05;32.30;102176.28;4164843;28;20115;-50
2021/12/18 01:38:05;;;;;;;5.45;4.20;;;;;;;20.06;32.44;102180.75;4163136;28;20107;-53
2021/12/18 01:40:07;;;;;;;6.53;4.25;;;;;;;20.04;31.65;102185.72;4164473;28;20119;-51
2021/12/18 01:44:49;;;;;;;6.30;4.82;;;;;;;20.06;32.26;102180.75;4178705;28;20474;-49
2021/12/18 01:46:59;;;;;;;6.85;4.30;;;;;;;20.10;34.17;102165.28;4179835;28;20476;-51
2021/12/18 01:53:23;;;;;;;7.72;5.43;;;;;;;20.17;32.63;102166.00;4180935;28;20475;-49
2021/12/18 01:55:28;;;;;;;14.73;7.75;;;;;;;20.14;31.83;102166.47;4178857;28;20081;-53
2021/12/18 01:57:33;;;;;;;7.85;4.40;;;;;;;20.15;33.97;102173.72;4168436;28;20469;-48
2021/12/18 01:59:45;;;;;;;7.10;4.90;;;;;;;20.17;35.00;102171.53;4164026;28;20030;-52
2021/12/18 02:01:49;;;;;;;9.27;4.97;;;;;;;20.21;34.90;102175.53;4164128;28;20461;-48
2021/12/18 02:03:51;;;;;;;10.55;5.82;;;;;;;20.22;34.60;102171.66;4169954;28;20042;-52
2021/12/18 02:05:53;;;;;;;8.23;5.05;;;;;;;20.25;34.81;102184.19;4162867;28;20437;-48
2021/12/18 02:07:55;;;;;;;8.57;5.63;;;;;;;20.26;34.87;102183.97;4162268;28;20095;-47
2021/12/18 02:10:08;;;;;;;11.57;5.97;;;;;;;20.24;34.88;102172.22;4163729;28;20037;-47
2021/12/18 02:12:10;;;;;;;9.57;6.03;;;;;;;20.29;35.26;102180.66;4163745;28;20037;-51
2021/12/18 02:19:32;;;;;;;8.93;5.80;;;;;;;20.26;34.95;102167.28;4164267;28;20045;-46
2021/12/18 02:21:27;;;;;;;9.50;6.10;;;;;;;20.37;35.63;102165.53;4164321;28;20519;-48
2021/12/18 02:23:29;;;;;;;9.25;6.28;;;;;;;20.40;36.00;102167.00;4163059;28;20033;-46
2021/12/18 02:25:35;;;;;;;11.05;6.20;;;;;;;20.40;35.94;102167.00;4164065;28;20034;-49
2021/12/18 02:27:36;;;;;;;12.35;6.90;;;;;;;20.43;36.14;102177.59;4166988;28;20041;-52
2021/12/18 02:29:39;;;;;;;10.52;5.90;;;;;;;20.43;36.48;102164.53;4178401;28;20468;-48
2021/12/18 02:31:43;;;;;;;10.80;5.88;;;;;;;20.44;36.43;102169.03;4183404;28;20045;-50
2021/12/18 02:33:45;;;;;;;11.05;6.95;;;;;;;20.44;36.79;102174.59;4183560;28;20110;-48
2021/12/18 02:35:49;;;;;;;11.25;6.85;;;;;;;20.47;36.78;102171.34;4183147;28;20369;-48
2021/12/18 02:37:51;;;;;;;10.23;6.35;;;;;;;20.48;36.52;102169.38;4182986;28;20522;-48
2021/12/18 02:42:18;;;;;;;12.60;6.40;;;;;;;20.50;37.10;102164.44;4173910;28;20607;-50
2021/12/18 02:44:19;;;;;;;13.30;6.45;;;;;;;20.53;36.88;102158.41;4166190;28;20099;-47
2021/12/18 02:46:20;;;;;;;11.35;6.20;;;;;;;20.55;37.45;102150.63;4165965;28;20432;-48
2021/12/18 02:48:28;;;;;;;12.13;7.30;;;;;;;20.53;37.20;102131.44;4166093;28;20037;-52
2021/12/18 02:50:29;;;;;;;8.82;6.47;;;;;;;20.58;37.55;102133.47;4166188;28;20041;-47
2021/12/18 02:52:31;;;;;;;11.35;6.53;;;;;;;20.58;37.79;102139.03;4166328;28;20033;-52
2021/12/18 02:54:32;;;;;;;10.60;6.65;;;;;;;20.59;37.67;102146.25;4168190;28;20435;-50
2021/12/18 02:56:35;;;;;;;11.10;6.28;;;;;;;20.60;37.88;102147.94;4170550;28;20032;-47
2021/12/18 02:58:37;;;;;;;12.23;6.38;;;;;;;20.61;37.99;102146.84;4182450;28;20041;-46
2021/12/18 03:00:39;;;;;;;10.77;6.70;;;;;;;20.62;37.90;102150.47;4183604;28;20037;-47
2021/12/18 03:02:44;;;;;;;8.75;5.43;;;;;;;20.59;38.12;102140.69;4182552;28;20041;-51
2021/12/18 03:04:50;;;;;;;8.77;5.93;;;;;;;20.64;38.16;102148.28;4182646;28;20400;-50
2021/12/18 03:06:58;;;;;;;9.48;6.45;;;;;;;20.66;38.25;102155.28;4181769;28;20091;-47
2021/12/18 03:25:03;;;;;;;11.30;6.05;;;;;;;20.78;38.94;102156.06;4173191;28;20021;-46
2021/12/18 03:27:07;;;;;;;9.80;5.15;;;;;;;20.80;39.19;102167.81;4166274;28;20041;-50
2021/12/18 03:29:08;;;;;;;10.45;6.30;;;;;;;20.81;39.42;102177.84;4164109;28;20049;-47
2021/12/18 03:31:10;;;;;;;8.07;5.43;;;;;;;20.83;39.29;102173.94;4164095;28;20046;-50
2021/12/18 03:33:11;;;;;;;7.72;5.18;;;;;;;20.83;39.08;102162.81;4168407;28;20042;-47
2021/12/18 03:35:15;;;;;;;10.07;5.72;;;;;;;20.80;39.24;102165.03;4163267;28;20091;-50
2021/12/18 03:37:16;;;;;;;7.90;5.35;;;;;;;20.83;39.73;102160.03;4163541;28;20037;-51
2021/12/18 03:39:19;;;;;;;9.98;5.75;;;;;;;20.86;39.36;102167.88;4170129;28;20094;-48
2021/12/18 03:41:21;;;;;;;9.93;5.57;;;;;;;20.86;39.34;102154.81;4163948;28;20037;-49
2021/12/18 03:43:22;;;;;;;11.35;5.60;;;;;;;20.87;39.95;102158.44;4179922;28;20032;-53
2021/12/18 03:45:24;;;;;;;8.18;5.88;;;;;;;20.90;39.96;102155.16;4172549;28;20102;-49
2021/12/18 03:47:25;;;;;;;9.63;5.63;;;;;;;20.87;40.15;102138.97;4164458;28;20092;-51
2021/12/18 03:49:27;;;;;;;10.02;4.90;;;;;;;20.89;41.03;102143.19;4164533;28;20037;-50
2021/12/18 03:51:28;;;;;;;11.00;5.72;;;;;;;20.92;42.89;102139.06;4168336;28;20041;-48
2021/12/18 03:53:30;;;;;;;8.63;4.88;;;;;;;20.93;43.43;102137.94;4180369;28;20461;-52
2021/12/18 03:55:31;;;;;;;7.30;4.90;;;;;;;20.94;42.91;102134.09;4181101;28;20103;-50
2021/12/18 03:57:33;;;;;;;9.15;5.38;;;;;;;20.95;43.27;102130.22;4164796;28;20115;-50
2021/12/18 03:59:34;;;;;;;6.70;5.13;;;;;;;20.95;43.10;102133.84;4165079;28;20045;-50
2021/12/18 04:01:35;;;;;;;9.57;4.63;;;;;;;20.96;43.15;102145.81;4165816;28;20107;-50
2021/12/18 04:03:37;;;;;;;7.82;4.82;;;;;;;20.97;43.01;102136.34;4165302;28;20049;-51
2021/12/18 04:05:38;;;;;;;8.05;5.15;;;;;;;20.98;43.14;102129.69;4164980;28;20045;-51
2021/12/18 04:07:43;;;;;;;8.57;4.88;;;;;;;20.99;43.05;102123.06;4165376;28;20057;-49
2021/12/18 04:09:48;;;;;;;10.00;4.80;;;;;;;21.00;42.97;102127.50;4165664;28;20114;-50
2021/12/18 04:11:50;;;;;;;7.38;5.18;;;;;;;21.02;42.80;102144.78;4164999;28;20037;-48
2021/12/18 04:13:51;;;;;;;8.88;5.13;;;;;;;21.02;42.54;102133.66;4165223;28;20034;-54
2021/12/18 04:15:52;;;;;;;8.48;5.10;;;;;;;21.02;42.72;102134.50;4164397;28;20111;-52
2021/12/18 04:17:54;;;;;;;9.10;5.22;;;;;;;21.03;42.37;102127.00;4175490;28;20369;-51
2021/12/18 04:19:55;;;;;;;8.55;4.68;;;;;;;21.04;42.65;102131.47;4180623;28;20090;-50
2021/12/18 04:21:56;;;;;;;7.55;4.78;;;;;;;21.05;42.24;102124.81;4180350;28;20101;-49
2021/12/18 04:23:59;;;;;;;7.55;5.10;;;;;;;21.06;42.47;102123.69;4181433;28;20029;-48
2021/12/18 04:26:00;;;;;;;8.30;4.95;;;;;;;21.06;42.34;102120.91;4181832;28;20431;-51
2021/12/18 04:28:02;;;;;;;9.95;4.90;;;;;;;21.08;42.43;102129.88;4181069;28;20041;-48
2021/12/18 04:30:04;;;;;;;7.05;4.63;;;;;;;21.04;41.87;102125.91;4181238;28;20095;-49
2021/12/18 04:32:06;;;;;;;7.00;4.63;;;;;;;21.08;42.01;102135.44;4180078;28;20045;-48
2021/12/18 04:34:08;;;;;;;9.50;4.90;;;;;;;21.07;41.94;102139.31;4181846;28;20468;-50
2021/12/18 04:36:09;;;;;;;6.22;4.18;;;;;;;20.99;42.09;102123.06;4168464;28;20475;-50
2021/12/18 04:38:11;;;;;;;7.50;4.50;;;;;;;21.10;41.92;102136.03;4179874;28;20430;-51
2021/12/18 04:40:12;;;;;;;6.55;4.20;;;;;;;21.10;41.88;102130.44;4181247;28;20095;-51
2021/12/18 04:42:13;;;;;;;8.95;4.57;;;;;;;21.11;41.93;102118.22;4180701;28;20063;-52
2021/12/18 04:44:16;;;;;;;8.73;5.10;;;;;;;21.11;41.83;102118.22;4173797;28;20111;-49
2021/12/18 04:46:18;;;;;;;6.85;4.20;;;;;;;21.12;41.96;102125.50;4181459;28;20036;-49
2021/12/18 04:48:19;;;;;;;5.55;4.03;;;;;;;21.12;41.72;102111.56;4179956;28;20136;-49
2021/12/18 04:50:23;;;;;;;6.47;4.50;;;;;;;21.12;41.49;102111.56;4180744;28;20104;-50
2021/12/18 04:52:25;;;;;;;6.03;3.90;;;;;;;21.11;41.79;102122.94;4181482;28;20095;-48
2021/12/18 04:54:26;;;;;;;6.00;3.95;;;;;;;21.07;41.45;102119.81;4180658;28;20037;-51
2021/12/18 04:56:28;;;;;;;6.40;4.15;;;;;;;21.14;41.49;102120.50;4180749;28;20041;-54
2021/12/18 04:58:29;;;;;;;4.60;3.63;;;;;;;21.13;41.52;102124.38;4180978;28;20037;-52
2021/12/18 05:00:38;;;;;;;6.40;4.15;;;;;;;21.14;41.86;102131.63;4181191;28;20041;-53
2021/12/18 05:02:42;;;;;;;6.85;4.18;;;;;;;21.13;41.75;102118.81;4181072;28;20202;-52
2021/12/18 05:04:44;;;;;;;7.35;4.05;;;;;;;21.15;41.25;102116.63;4180876;28;20037;-52
2021/12/18 05:06:47;;;;;;;7.70;4.20;;;;;;;21.12;41.34;102100.44;4180996;28;20041;-48
2021/12/18 05:08:48;;;;;;;6.40;4.28;;;;;;;21.16;41.58;102104.38;4180737;28;20103;-52
2021/12/18 05:10:50;;;;;;;5.68;3.88;;;;;;;21.16;41.43;102101.59;4181116;28;20439;-51
2021/12/18 05:12:51;;;;;;;5.55;3.95;;;;;;;21.15;41.51;102091.56;4181211;28;20119;-52
2021/12/18 05:14:55;;;;;;;5.78;3.80;;;;;;;21.15;41.20;102088.78;4180840;28;20045;-53
2021/12/18 05:16:57;;;;;;;5.70;4.30;;;;;;;21.17;41.24;102103.31;4181179;28;20037;-52
2021/12/18 05:19:01;;;;;;;5.60;4.28;;;;;;;21.15;41.11;102108.25;4179052;28;20289;-50
2021/12/18 05:21:03;;;;;;;6.03;3.90;;;;;;;21.18;41.43;102104.13;4180862;28;20045;-50
2021/12/18 05:23:04;;;;;;;5.22;3.63;;;;;;;21.18;41.40;102093.00;4180733;28;20472;-48
2021/12/18 05:25:06;;;;;;;7.55;4.30;;;;;;;21.18;41.09;102093.84;4180443;28;20041;-50
2021/12/18 05:27:07;;;;;;;7.00;4.10;;;;;;;21.19;41.18;102092.75;4179920;28;20106;-48
2021/12/18 05:29:09;;;;;;;5.97;3.83;;;;;;;21.13;41.39;102081.81;4181066;28;20028;-48
2021/12/18 05:31:13;;;;;;;5.72;3.63;;;;;;;21.19;41.18;102073.25;4180476;28;20041;-49
2021/12/18 05:33:17;;;;;;;5.63;3.88;;;;;;;21.21;41.32;102059.06;4180921;28;20083;-48
2021/12/18 05:35:18;;;;;;;6.78;4.50;;;;;;;21.19;41.30;102067.69;4179310;28;20045;-48
2021/12/18 05:37:32;;;;;;;5.85;3.92;;;;;;;21.20;41.10;102086.06;4178657;28;20859;-52
2021/12/18 05:39:33;;;;;;;5.50;3.53;;;;;;;21.20;41.04;102086.06;4165592;28;20049;-49
2021/12/18 05:41:35;;;;;;;5.88;4.10;;;;;;;21.20;41.04;102086.06;4175625;28;20152;-50
2021/12/18 05:43:37;;;;;;;5.00;3.47;;;;;;;21.22;41.02;102083.06;4164569;28;20103;-52
2021/12/18 05:45:38;;;;;;;5.30;3.28;;;;;;;21.22;40.99;102081.09;4169790;28;20098;-51
2021/12/18 05:47:40;;;;;;;5.07;3.20;;;;;;;21.16;40.98;102073.75;4179830;28;20049;-48
2021/12/18 05:49:42;;;;;;;4.05;3.00;;;;;;;21.21;41.13;102082.22;4177254;28;20028;-47
2021/12/18 05:51:44;;;;;;;4.22;3.33;;;;;;;21.18;40.91;102082.72;4163680;28;20038;-50
2021/12/18 05:53:50;;;;;;;5.50;3.55;;;;;;;21.21;41.22;102092.47;4167689;28;20369;-51
2021/12/18 05:55:55;;;;;;;4.43;3.30;;;;;;;21.21;40.83;102087.78;4178446;28;20114;-50
2021/12/18 05:57:57;;;;;;;5.13;3.72;;;;;;;21.15;41.13;102077.66;4179360;28;20471;-49
2021/12/18 05:59:58;;;;;;;5.03;3.80;;;;;;;21.21;41.13;102090.56;4180654;28;20392;-51
2021/12/18 06:02:03;;;;;;;6.40;3.47;;;;;;;21.23;40.86;102090.28;4178124;28;20088;-52
2021/12/18 06:04:04;;;;;;;6.53;3.67;;;;;;;21.22;40.83;102092.25;4167886;28;20438;-51
2021/12/18 06:06:05;;;;;;;6.30;3.50;;;;;;;21.22;40.92;102089.47;4168358;28;20037;-50
2021/12/18 06:08:11;;;;;;;5.57;3.33;;;;;;;21.22;40.82;102083.88;4167861;28;20107;-47
2021/12/18 06:10:12;;;;;;;5.93;3.60;;;;;;;21.24;40.67;102092.81;4169358;28;20037;-52
2021/12/18 06:12:13;;;;;;;7.13;3.42;;;;;;;21.21;40.77;102079.44;4183671;28;20080;-50
2021/12/18 06:14:17;;;;;;;5.13;3.15;;;;;;;21.23;40.65;102090.28;4170232;28;20099;-50
2021/12/18 06:16:20;;;;;;;3.83;3.10;;;;;;;21.22;40.88;102083.88;4167142;28;20041;-47
2021/12/18 06:18:22;;;;;;;5.78;3.42;;;;;;;21.24;41.05;102108.69;4170676;28;20095;-50
2021/12/18 06:20:24;;;;;;;6.10;3.03;;;;;;;21.23;40.83;102124.53;4176572;28;20041;-49
2021/12/18 06:22:26;;;;;;;3.75;3.10;;;;;;;21.23;40.69;102123.69;4166669;28;20148;-46
2021/12/18 06:24:30;;;;;;;4.03;3.45;;;;;;;21.23;40.99;102124.53;4177806;28;20040;-48
2021/12/18 06:26:31;;;;;;;6.70;3.50;;;;;;;21.23;40.89;102118.97;4183296;28;20190;-51
2021/12/18 06:28:33;;;;;;;4.65;3.22;;;;;;;21.22;40.81;102117.28;4183295;28;20041;-48
2021/12/18 06:30:38;;;;;;;5.10;3.45;;;;;;;21.21;41.02;102104.47;4183305;28;20143;-48
2021/12/18 06:32:43;;;;;;;5.28;3.30;;;;;;;21.18;40.69;102099.41;4183706;28;20049;-48
2021/12/18 06:34:44;;;;;;;4.50;3.30;;;;;;;21.22;40.69;102088.63;4183762;28;20445;-48
2021/12/18 06:36:45;;;;;;;5.10;3.47;;;;;;;21.20;40.80;102102.78;4171080;28;20045;-49
2021/12/18 06:38:49;;;;;;;4.03;3.05;;;;;;;21.21;40.67;102093.34;4166513;28;20045;-51
2021/12/18 06:40:54;;;;;;;6.95;3.30;;;;;;;21.21;40.86;102093.34;4166825;28;20041;-51
2021/12/18 06:42:55;;;;;;;4.47;2.90;;;;;;;21.21;40.62;102104.47;4166795;28;20476;-47
2021/12/18 06:44:57;;;;;;;5.00;3.20;;;;;;;21.21;40.92;102101.69;4166617;28;20038;-49
2021/12/18 06:46:58;;;;;;;4.90;2.83;;;;;;;21.21;40.90;102098.91;4177660;28;20091;-49
2021/12/18 06:49:04;;;;;;;5.20;3.03;;;;;;;21.20;40.78;102088.84;4183128;28;20045;-48
2021/12/18 06:51:05;;;;;;;6.15;3.20;;;;;;;21.21;40.80;102084.13;4183354;28;20033;-49
2021/12/18 06:53:08;;;;;;;4.25;2.90;;;;;;;21.19;40.86;102078.81;4182657;28;20032;-48
2021/12/18 06:55:09;;;;;;;3.42;2.80;;;;;;;21.19;40.58;102084.38;4170815;28;20538;-49
2021/12/18 06:57:13;;;;;;;3.92;2.55;;;;;;;21.13;40.61;102084.59;4167303;28;20459;-51
2021/12/18 06:59:15;;;;;;;3.35;2.53;;;;;;;21.18;40.76;102088.28;4166755;28;20118;-53
2021/12/18 07:01:17;;;;;;;4.28;3.05;;;;;;;21.12;40.80;102089.31;4174531;28;20439;-51
2021/12/18 07:03:18;;;;;;;6.38;3.08;;;;;;;21.18;40.73;102107.75;4182823;28;20041;-46
2021/12/18 07:05:20;;;;;;;3.65;2.50;;;;;;;21.18;40.59;102091.06;4178847;28;20029;-50
2021/12/18 07:07:21;;;;;;;4.18;3.05;;;;;;;21.15;40.71;102071.25;4171698;28;20033;-47
2021/12/18 07:09:23;;;;;;;3.83;3.03;;;;;;;21.16;40.87;102072.91;4182448;28;20041;-50
2021/12/18 07:11:24;;;;;;;3.85;2.50;;;;;;;21.17;40.80;102094.94;4180530;28;20033;-51
2021/12/18 07:13:30;;;;;;;3.30;2.60;;;;;;;21.15;40.56;102105.47;4181363;28;20052;-51
2021/12/18 07:15:32;;;;;;;3.75;2.65;;;;;;;21.16;40.50;102106.31;4175801;28;20057;-51
2021/12/18 07:17:33;;;;;;;4.22;2.85;;;;;;;21.16;40.87;102112.72;4165624;28;20057;-52
2021/12/18 07:19:35;;;;;;;3.50;2.67;;;;;;;21.16;40.49;102109.09;4170752;28;20103;-53
2021/12/18 07:21:36;;;;;;;3.95;2.83;;;;;;;21.15;40.83;102115.78;4177163;28;20655;-52
2021/12/18 07:23:38;;;;;;;3.50;2.55;;;;;;;21.16;41.02;102118.28;4169646;28;20044;-51
2021/12/18 07:25:42;;;;;;;3.78;2.67;;;;;;;21.13;40.97;102121.59;4182379;28;20037;-52
2021/12/18 07:27:43;;;;;;;4.07;3.00;;;;;;;21.14;40.59;102131.63;4177976;28;20049;-49
2021/12/18 07:29:45;;;;;;;2.72;2.20;;;;;;;21.14;40.63;102136.38;4183854;28;20047;-49
2021/12/18 07:31:46;;;;;;;3.35;2.28;;;;;;;21.15;40.67;102155.59;4170079;28;20073;-48
2021/12/18 07:33:47;;;;;;;2.95;2.40;;;;;;;21.15;40.64;102169.50;4166604;28;20176;-49
2021/12/18 07:35:50;;;;;;;3.38;2.30;;;;;;;21.15;40.69;102174.22;4168759;28;20457;-48
2021/12/18 07:37:51;;;;;;;3.88;2.38;;;;;;;21.13;40.87;102177.28;4181277;28;20045;-48
2021/12/18 07:39:53;;;;;;;4.40;2.88;;;;;;;21.11;40.69;102164.69;4182349;28;20087;-47
2021/12/18 07:41:54;;;;;;;4.15;2.40;;;;;;;21.11;40.75;102176.66;4169036;28;20046;-48
2021/12/18 07:43:56;;;;;;;3.80;2.88;;;;;;;21.11;40.62;102171.09;4174105;28;20106;-48
2021/12/18 07:45:57;;;;;;;2.83;2.50;;;;;;;21.12;41.04;102171.94;4180910;28;20033;-49
2021/12/18 07:47:59;;;;;;;4.00;2.55;;;;;;;21.12;40.78;102166.38;4175050;28;20044;-51
2021/12/18 07:50:02;;;;;;;3.35;2.35;;;;;;;21.10;40.90;102169.41;4165598;28;20037;-49
2021/12/18 07:52:04;;;;;;;3.63;2.50;;;;;;;21.10;40.97;102161.06;4180280;28;20115;-48
2021/12/18 07:54:06;;;;;;;3.92;2.60;;;;;;;21.07;40.93;102158.78;4170164;28;20080;-51
2021/12/18 07:56:09;;;;;;;3.80;2.75;;;;;;;21.02;40.80;102155.91;4181669;28;20098;-50
2021/12/18 07:58:11;;;;;;;3.55;2.42;;;;;;;21.05;41.04;102149.84;4181238;28;20041;-47
2021/12/18 08:00:14;;;;;;;4.05;2.40;;;;;;;21.08;40.94;102151.31;4166113;28;20326;-50
2021/12/18 08:02:15;;;;;;;4.10;2.65;;;;;;;21.07;40.94;102153.22;4165233;28;20406;-47
2021/12/18 08:04:17;;;;;;;3.08;2.13;;;;;;;21.07;40.68;102158.78;4165520;28;21699;-49
2021/12/18 08:06:21;;;;;;;5.60;2.42;;;;;;;21.07;40.92;102153.22;4165222;28;20437;-53
2021/12/18 08:08:23;;;;;;;2.92;2.05;;;;;;;21.08;40.67;102142.94;4165337;28;20098;-50
2021/12/18 08:10:24;;;;;;;2.80;2.10;;;;;;;21.05;40.59;102144.28;4152782;28;20111;-49
2021/12/18 08:12:26;;;;;;;3.00;2.30;;;;;;;21.05;40.75;102155.41;4165393;28;20037;-48
2021/12/18 08:14:27;;;;;;;2.70;2.05;;;;;;;21.05;40.82;102158.19;4165015;28;20041;-52
2021/12/18 08:16:31;;;;;;;2.92;2.10;;;;;;;21.06;41.23;102157.09;4165108;28;20431;-54
2021/12/18 08:18:33;;;;;;;3.58;2.50;;;;;;;21.01;40.84;102152.28;4165426;28;20457;-51
2021/12/18 08:20:35;;;;;;;3.08;2.25;;;;;;;21.04;41.03;102149.00;4165674;28;20037;-51
2021/12/18 08:22:37;;;;;;;2.55;1.92;;;;;;;21.04;40.88;102153.75;4165103;28;20037;-48
2021/12/18 08:24:38;;;;;;;2.88;2.40;;;;;;;21.03;40.88;102150.13;4164121;28;20071;-53
2021/12/18 08:26:40;;;;;;;3.00;2.10;;;;;;;21.02;40.72;102139.22;4166939;28;20053;-50
2021/12/18 08:28:41;;;;;;;2.58;2.30;;;;;;;21.01;41.05;102138.38;4181512;28;20098;-49
2021/12/18 08:30:42;;;;;;;2.92;2.30;;;;;;;21.00;41.07;102144.22;4181412;28;20427;-49
2021/12/18 08:32:44;;;;;;;3.92;2.00;;;;;;;21.02;40.75;102140.06;4178233;28;20033;-50
2021/12/18 08:34:45;;;;;;;2.70;2.22;;;;;;;20.99;40.65;102136.97;4164935;28;20042;-47
2021/12/18 08:36:47;;;;;;;2.10;1.83;;;;;;;20.99;40.81;102134.19;4164491;28;20038;-49
2021/12/18 08:38:49;;;;;;;2.72;2.20;;;;;;;20.98;40.97;102138.03;4164438;28;20099;-49
2021/12/18 08:40:59;;;;;;;3.40;2.28;;;;;;;20.98;40.65;102126.91;4165174;28;20088;-48
2021/12/18 08:43:01;;;;;;;2.65;2.03;;;;;;;20.96;40.77;102123.53;4165085;28;20508;-49
2021/12/18 08:45:03;;;;;;;3.92;2.25;;;;;;;20.99;40.81;102135.03;4164234;28;20041;-50
2021/12/18 08:47:04;;;;;;;3.17;2.10;;;;;;;20.97;41.09;102128.00;4165485;28;20033;-50
2021/12/18 08:49:06;;;;;;;3.00;2.00;;;;;;;20.99;40.60;102134.19;4179828;28;20045;-50
2021/12/18 08:51:08;;;;;;;2.70;2.15;;;;;;;20.97;41.13;102133.56;4181316;28;20049;-48
2021/12/18 08:53:09;;;;;;;3.65;2.50;;;;;;;20.90;40.75;102117.06;4180869;28;20029;-55
2021/12/18 08:55:12;;;;;;;3.08;2.03;;;;;;;20.92;40.70;102111.22;4176389;28;20096;-49
2021/12/18 08:57:13;;;;;;;2.85;2.00;;;;;;;20.97;40.79;102114.09;4172917;28;20099;-51
2021/12/18 08:59:15;;;;;;;2.63;2.10;;;;;;;20.96;40.67;102113.25;4180777;28;20033;-52
2021/12/18 09:01:21;;;;;;;2.47;1.83;;;;;;;20.96;40.71;102129.94;4165547;28;20080;-47
2021/12/18 09:03:23;;;;;;;2.53;2.00;;;;;;;20.95;41.10;102128.28;4164843;28;20115;-49
2021/12/18 09:05:25;;;;;;;3.38;2.10;;;;;;;20.96;40.72;102127.16;4172397;28;20136;-49
2021/12/18 09:07:27;;;;;;;3.25;2.25;;;;;;;20.96;40.56;102129.94;4166748;28;20472;-50
2021/12/18 09:09:28;;;;;;;2.20;1.83;;;;;;;20.96;41.00;102131.88;4165914;28;20030;-48
2021/12/18 09:11:29;;;;;;;3.35;2.40;;;;;;;20.93;40.88;102124.03;4175068;28;20075;-51
2021/12/18 09:13:31;;;;;;;3.28;2.15;;;;;;;20.95;40.95;102116.31;4164691;28;20037;-47
2021/12/18 09:15:32;;;;;;;2.97;1.88;;;;;;;20.95;40.67;102119.09;4166874;28;20420;-54
2021/12/18 09:17:34;;;;;;;2.78;1.98;;;;;;;20.96;40.62;102123.53;4180666;28;20053;-46
2021/12/18 09:19:36;;;;;;;3.70;2.30;;;;;;;20.95;40.78;102105.16;4180086;28;20476;-48
2021/12/18 09:21:38;;;;;;;2.03;1.70;;;;;;;20.95;40.62;102105.16;4177936;28;20041;-50
2021/12/18 09:23:39;;;;;;;2.42;1.90;;;;;;;20.95;40.87;102096.81;4171582;28;20103;-49
2021/12/18 09:25:40;;;;;;;2.08;1.73;;;;;;;20.95;40.64;102102.38;4181216;28;20029;-47
2021/12/18 09:27:42;;;;;;;2.33;1.90;;;;;;;20.94;40.88;102106.28;4174194;28;20099;-50
2021/12/18 09:29:44;;;;;;;2.95;1.77;;;;;;;20.93;40.58;102099.84;4181099;28;20056;-48
2021/12/18 09:31:46;;;;;;;2.47;1.80;;;;;;;20.93;40.70;102107.34;4181170;28;20041;-52
2021/12/18 09:33:47;;;;;;;1.95;1.60;;;;;;;20.93;40.72;102101.78;4181011;28;20094;-50
2021/12/18 09:35:49;;;;;;;2.50;2.00;;;;;;;20.92;40.72;102105.66;4180183;28;20094;-52
2021/12/18 09:37:50;;;;;;;2.53;1.65;;;;;;;20.93;40.95;102104.56;4180122;28;20095;-49
2021/12/18 09:39:52;;;;;;;2.17;1.77;;;;;;;20.91;40.85;102093.69;4180847;28;20427;-52
2021/12/18 09:41:53;;;;;;;2.67;1.90;;;;;;;20.91;40.71;102090.06;4180800;28;20142;-49
2021/12/18 09:43:55;;;;;;;2.40;1.70;;;;;;;20.87;40.74;102070.25;4180871;28;20091;-50
2021/12/18 09:46:09;;;;;;;2.63;1.50;;;;;;;20.90;40.91;102082.81;4180840;28;20098;-47
2021/12/18 09:48:11;;;;;;;2.03;1.70;;;;;;;20.92;40.65;102094.53;4180451;28;20041;-52
2021/12/18 09:50:13;;;;;;;2.88;1.88;;;;;;;20.91;40.60;102098.41;4180833;28;20098;-53
2021/12/18 09:52:15;;;;;;;1.73;1.48;;;;;;;20.89;40.76;102103.38;4180454;28;20037;-49
2021/12/18 09:54:19;;;;;;;3.50;2.20;;;;;;;20.89;40.90;102078.34;4180851;28;20033;-49
2021/12/18 09:56:21;;;;;;;2.63;2.10;;;;;;;20.90;41.12;102074.47;4180534;28;20045;-48
2021/12/18 09:58:23;;;;;;;4.10;1.90;;;;;;;20.89;41.17;102079.22;4180250;28;20430;-47
2021/12/18 10:00:25;;;;;;;3.67;1.92;;;;;;;20.89;40.66;102086.69;4180415;28;20036;-49
2021/12/18 10:02:26;;;;;;;2.15;1.77;;;;;;;20.87;40.90;102072.19;4180764;28;20045;-49
2021/12/18 10:04:31;;;;;;;2.88;2.00;;;;;;;20.86;40.63;102070.50;4179423;28;20044;-47
2021/12/18 10:06:44;;;;;;;1.63;1.50;;;;;;;20.79;40.94;102054.81;4180949;28;20464;-48
2021/12/18 10:08:46;;;;;;;1.98;1.60;;;;;;;20.87;41.07;102052.72;4180561;28;20082;-50
2021/12/18 10:11:03;;;;;;;2.42;1.70;;;;;;;20.84;40.98;102047.66;4180027;28;20067;-52